sensor_id;sensor_type;location;lat;lon;timestamp;P1;durP1;ratioP1;P2;durP2;ratioP2
17528;SDS011;8882;53.192;8.184;2023-04-06T04:35:04;16.60;;;9.40;;
17528;SDS011;8882;53.192;8.184;2023-04-06T04:37:30;14.90;;;9.53;;
17528;SDS011;8882;53.192;8.184;2023-04-06T04:39:56;17.73;;;9.80;;
17528;SDS011;8882;53.192;8.184;2023-04-06T04:42:21;14.10;;;8.53;;
17528;SDS011;8882;53.192;8.184;2023-04-06T04:44:47;13.57;;;9.37;;
17528;SDS011;8882;53.192;8.184;2023-04-06T04:47:14;14.10;;;9.20;;
17528;SDS011;8882;53.192;8.184;2023-04-06T04:49:40;15.33;;;9.57;;
17528;SDS011;8882;53.192;8.184;2023-04-06T04:52:05;16.70;;;8.93;;
17528;SDS011;8882;53.192;8.184;2023-04-06T04:54:31;11.87;;;7.83;;
17528;SDS011;8882;53.192;8.184;2023-04-06T04:56:56;12.83;;;8.97;;
17528;SDS011;8882;53.192;8.184;2023-04-06T04:59:22;13.47;;;8.30;;
17528;SDS011;8882;53.192;8.184;2023-04-06T05:01:47;11.27;;;8.00;;
17528;SDS011;8882;53.192;8.184;2023-04-06T05:04:13;14.70;;;9.47;;
17528;SDS011;8882;53.192;8.184;2023-04-06T05:06:38;13.60;;;8.67;;
17528;SDS011;8882;53.192;8.184;2023-04-06T05:09:04;17.87;;;9.70;;
17528;SDS011;8882;53.192;8.184;2023-04-06T05:11:29;12.20;;;8.30;;
17528;SDS011;8882;53.192;8.184;2023-04-06T05:13:55;14.17;;;8.87;;
17528;SDS011;8882;53.192;8.184;2023-04-06T05:16:21;12.37;;;7.80;;
17528;SDS011;8882;53.192;8.184;2023-04-06T05:18:47;14.00;;;8.77;;
17528;SDS011;8882;53.192;8.184;2023-04-06T05:21:13;13.63;;;8.23;;
17528;SDS011;8882;53.192;8.184;2023-04-06T05:23:39;12.77;;;8.17;;
17528;SDS011;8882;53.192;8.184;2023-04-06T05:26:04;12.77;;;8.07;;
17528;SDS011;8882;53.192;8.184;2023-04-06T05:28:30;14.73;;;7.97;;
17528;SDS011;8882;53.192;8.184;2023-04-06T05:30:55;11.83;;;8.40;;
17528;SDS011;8882;53.192;8.184;2023-04-06T05:33:21;12.80;;;8.60;;
17528;SDS011;8882;53.192;8.184;2023-04-06T05:35:50;12.37;;;7.67;;
17528;SDS011;8882;53.192;8.184;2023-04-06T05:38:15;11.47;;;7.63;;
17528;SDS011;8882;53.192;8.184;2023-04-06T05:40:40;13.23;;;8.13;;
17528;SDS011;8882;53.192;8.184;2023-04-06T05:43:06;12.40;;;7.33;;
17528;SDS011;8882;53.192;8.184;2023-04-06T05:45:32;14.30;;;8.07;;
17528;SDS011;8882;53.192;8.184;2023-04-06T05:47:58;11.03;;;7.33;;
17528;SDS011;8882;53.192;8.184;2023-04-06T05:50:24;13.43;;;7.63;;
17528;SDS011;8882;53.192;8.184;2023-04-06T05:52:49;12.27;;;7.90;;
17528;SDS011;8882;53.192;8.184;2023-04-06T05:55:15;12.13;;;7.53;;
17528;SDS011;8882;53.192;8.184;2023-04-06T05:57:40;16.03;;;7.90;;
17528;SDS011;8882;53.192;8.184;2023-04-06T06:00:06;11.23;;;7.30;;
17528;SDS011;8882;53.192;8.184;2023-04-06T06:02:34;11.57;;;6.97;;
17528;SDS011;8882;53.192;8.184;2023-04-06T06:05:00;9.97;;;5.87;;
17528;SDS011;8882;53.192;8.184;2023-04-06T06:07:26;10.60;;;6.33;;
17528;SDS011;8882;53.192;8.184;2023-04-06T06:09:51;10.37;;;6.53;;
17528;SDS011;8882;53.192;8.184;2023-04-06T06:12:17;9.00;;;6.33;;
17528;SDS011;8882;53.192;8.184;2023-04-06T06:14:42;8.73;;;6.60;;
17528;SDS011;8882;53.192;8.184;2023-04-06T06:17:08;10.17;;;6.17;;
17528;SDS011;8882;53.192;8.184;2023-04-06T06:19:34;7.63;;;6.17;;
17528;SDS011;8882;53.192;8.184;2023-04-06T06:21:59;12.93;;;6.50;;
17528;SDS011;8882;53.192;8.184;2023-04-06T06:24:27;10.37;;;6.60;;
17528;SDS011;8882;53.192;8.184;2023-04-06T06:26:53;11.73;;;6.57;;
17528;SDS011;8882;53.192;8.184;2023-04-06T06:29:18;9.07;;;6.37;;
17528;SDS011;8882;53.192;8.184;2023-04-06T06:31:44;10.93;;;6.73;;
17528;SDS011;8882;53.192;8.184;2023-04-06T06:34:09;12.73;;;6.23;;
17528;SDS011;8882;53.192;8.184;2023-04-06T06:36:35;8.33;;;5.80;;
17528;SDS011;8882;53.192;8.184;2023-04-06T06:39:00;12.40;;;6.10;;
17528;SDS011;8882;53.192;8.184;2023-04-06T06:41:28;8.73;;;5.30;;
17528;SDS011;8882;53.192;8.184;2023-04-06T06:43:53;8.77;;;5.43;;
17528;SDS011;8882;53.192;8.184;2023-04-06T06:46:19;8.17;;;5.50;;
17528;SDS011;8882;53.192;8.184;2023-04-06T06:48:45;7.47;;;5.60;;
17528;SDS011;8882;53.192;8.184;2023-04-06T06:51:11;6.53;;;5.50;;
17528;SDS011;8882;53.192;8.184;2023-04-06T06:53:37;7.77;;;5.63;;
17528;SDS011;8882;53.192;8.184;2023-04-06T06:56:02;7.50;;;5.53;;
17528;SDS011;8882;53.192;8.184;2023-04-06T06:58:28;8.27;;;5.50;;
17528;SDS011;8882;53.192;8.184;2023-04-06T07:00:57;7.83;;;5.60;;
17528;SDS011;8882;53.192;8.184;2023-04-06T07:03:23;7.70;;;4.90;;
17528;SDS011;8882;53.192;8.184;2023-04-06T07:05:49;8.87;;;5.27;;
17528;SDS011;8882;53.192;8.184;2023-04-06T07:08:18;6.13;;;4.77;;
17528;SDS011;8882;53.192;8.184;2023-04-06T07:10:47;7.73;;;5.27;;
17528;SDS011;8882;53.192;8.184;2023-04-06T07:13:14;6.00;;;4.87;;
17528;SDS011;8882;53.192;8.184;2023-04-06T07:15:45;6.17;;;5.07;;
17528;SDS011;8882;53.192;8.184;2023-04-06T07:18:11;8.33;;;5.00;;
17528;SDS011;8882;53.192;8.184;2023-04-06T07:20:36;10.40;;;5.40;;
17528;SDS011;8882;53.192;8.184;2023-04-06T07:23:02;7.47;;;5.00;;
17528;SDS011;8882;53.192;8.184;2023-04-06T07:25:27;7.50;;;4.87;;
17528;SDS011;8882;53.192;8.184;2023-04-06T07:27:54;7.20;;;4.83;;
17528;SDS011;8882;53.192;8.184;2023-04-06T07:30:19;8.40;;;5.37;;
17528;SDS011;8882;53.192;8.184;2023-04-06T07:32:46;11.40;;;6.30;;
17528;SDS011;8882;53.192;8.184;2023-04-06T07:35:12;9.87;;;5.40;;
17528;SDS011;8882;53.192;8.184;2023-04-06T07:37:38;8.13;;;5.43;;
17528;SDS011;8882;53.192;8.184;2023-04-06T07:40:03;6.80;;;5.00;;
17528;SDS011;8882;53.192;8.184;2023-04-06T07:42:29;7.23;;;5.17;;
17528;SDS011;8882;53.192;8.184;2023-04-06T07:44:55;7.20;;;4.90;;
17528;SDS011;8882;53.192;8.184;2023-04-06T07:47:20;8.23;;;4.80;;
17528;SDS011;8882;53.192;8.184;2023-04-06T07:49:46;8.40;;;5.00;;
17528;SDS011;8882;53.192;8.184;2023-04-06T07:52:12;7.07;;;4.83;;
17528;SDS011;8882;53.192;8.184;2023-04-06T07:54:37;5.57;;;4.23;;
17528;SDS011;8882;53.192;8.184;2023-04-06T07:57:03;6.77;;;4.77;;
17528;SDS011;8882;53.192;8.184;2023-04-06T07:59:28;5.03;;;4.27;;
17528;SDS011;8882;53.192;8.184;2023-04-06T08:01:54;6.53;;;4.80;;
17528;SDS011;8882;53.192;8.184;2023-04-06T08:04:20;6.60;;;4.30;;
17528;SDS011;8882;53.192;8.184;2023-04-06T08:06:45;6.80;;;4.73;;
17528;SDS011;8882;53.192;8.184;2023-04-06T08:09:11;5.90;;;4.53;;
17528;SDS011;8882;53.192;8.184;2023-04-06T08:11:36;4.53;;;4.10;;
17528;SDS011;8882;53.192;8.184;2023-04-06T08:14:01;6.53;;;4.37;;
17528;SDS011;8882;53.192;8.184;2023-04-06T08:16:27;7.43;;;4.30;;
17528;SDS011;8882;53.192;8.184;2023-04-06T08:18:52;5.20;;;4.10;;
17528;SDS011;8882;53.192;8.184;2023-04-06T08:21:18;5.40;;;4.20;;
17528;SDS011;8882;53.192;8.184;2023-04-06T08:23:43;5.73;;;4.07;;
17528;SDS011;8882;53.192;8.184;2023-04-06T08:26:10;6.73;;;4.23;;
17528;SDS011;8882;53.192;8.184;2023-04-06T08:28:37;6.70;;;4.07;;
17528;SDS011;8882;53.192;8.184;2023-04-06T08:31:06;5.57;;;4.47;;
17528;SDS011;8882;53.192;8.184;2023-04-06T08:33:32;6.57;;;3.80;;
17528;SDS011;8882;53.192;8.184;2023-04-06T08:36:08;5.37;;;4.03;;
17528;SDS011;8882;53.192;8.184;2023-04-06T08:38:35;5.63;;;4.40;;
17528;SDS011;8882;53.192;8.184;2023-04-06T08:41:06;6.07;;;3.93;;
17528;SDS011;8882;53.192;8.184;2023-04-06T08:43:41;5.97;;;3.60;;
17528;SDS011;8882;53.192;8.184;2023-04-06T08:46:09;8.57;;;4.10;;
17528;SDS011;8882;53.192;8.184;2023-04-06T08:48:36;7.33;;;4.30;;
17528;SDS011;8882;53.192;8.184;2023-04-06T08:51:03;4.80;;;3.67;;
17528;SDS011;8882;53.192;8.184;2023-04-06T08:53:29;7.77;;;4.20;;
17528;SDS011;8882;53.192;8.184;2023-04-06T08:55:55;5.43;;;4.57;;
17528;SDS011;8882;53.192;8.184;2023-04-06T08:58:23;5.23;;;3.93;;
17528;SDS011;8882;53.192;8.184;2023-04-06T09:00:50;5.20;;;3.73;;
17528;SDS011;8882;53.192;8.184;2023-04-06T09:03:16;4.97;;;3.83;;
17528;SDS011;8882;53.192;8.184;2023-04-06T09:05:43;5.73;;;3.77;;
17528;SDS011;8882;53.192;8.184;2023-04-06T09:08:11;5.03;;;3.83;;
17528;SDS011;8882;53.192;8.184;2023-04-06T09:10:38;5.27;;;3.97;;
17528;SDS011;8882;53.192;8.184;2023-04-06T09:13:06;5.47;;;3.97;;
17528;SDS011;8882;53.192;8.184;2023-04-06T09:15:32;5.00;;;3.83;;
17528;SDS011;8882;53.192;8.184;2023-04-06T09:17:58;4.83;;;3.60;;
17528;SDS011;8882;53.192;8.184;2023-04-06T09:20:24;5.67;;;3.80;;
17528;SDS011;8882;53.192;8.184;2023-04-06T09:22:51;6.83;;;4.50;;
17528;SDS011;8882;53.192;8.184;2023-04-06T09:25:23;5.77;;;3.67;;
17528;SDS011;8882;53.192;8.184;2023-04-06T09:27:58;5.83;;;3.83;;
17528;SDS011;8882;53.192;8.184;2023-04-06T09:30:25;4.37;;;3.47;;
17528;SDS011;8882;53.192;8.184;2023-04-06T09:32:52;6.17;;;4.10;;
17528;SDS011;8882;53.192;8.184;2023-04-06T09:35:20;4.07;;;3.60;;
17528;SDS011;8882;53.192;8.184;2023-04-06T09:37:47;4.23;;;3.77;;
17528;SDS011;8882;53.192;8.184;2023-04-06T09:40:13;7.67;;;3.87;;
17528;SDS011;8882;53.192;8.184;2023-04-06T09:42:40;7.57;;;4.33;;
17528;SDS011;8882;53.192;8.184;2023-04-06T09:45:07;5.80;;;4.30;;
17528;SDS011;8882;53.192;8.184;2023-04-06T09:47:32;6.67;;;4.17;;
17528;SDS011;8882;53.192;8.184;2023-04-06T09:50:05;4.87;;;4.03;;
17528;SDS011;8882;53.192;8.184;2023-04-06T09:52:33;6.73;;;4.30;;
17528;SDS011;8882;53.192;8.184;2023-04-06T09:55:11;7.63;;;4.53;;
17528;SDS011;8882;53.192;8.184;2023-04-06T09:57:49;6.33;;;4.70;;
17528;SDS011;8882;53.192;8.184;2023-04-06T10:00:21;6.00;;;4.30;;
17528;SDS011;8882;53.192;8.184;2023-04-06T10:08:05;6.50;;;4.60;;
17528;SDS011;8882;53.192;8.184;2023-04-06T10:10:34;7.50;;;4.53;;
17528;SDS011;8882;53.192;8.184;2023-04-06T10:13:00;5.70;;;4.60;;
17528;SDS011;8882;53.192;8.184;2023-04-06T10:15:27;9.97;;;4.70;;
17528;SDS011;8882;53.192;8.184;2023-04-06T10:17:54;5.73;;;4.70;;
17528;SDS011;8882;53.192;8.184;2023-04-06T10:25:29;6.07;;;4.80;;
17528;SDS011;8882;53.192;8.184;2023-04-06T10:27:59;8.83;;;5.90;;
17528;SDS011;8882;53.192;8.184;2023-04-06T10:30:31;8.27;;;4.90;;
17528;SDS011;8882;53.192;8.184;2023-04-06T10:33:13;7.73;;;6.03;;
17528;SDS011;8882;53.192;8.184;2023-04-06T10:35:40;7.27;;;5.30;;
17528;SDS011;8882;53.192;8.184;2023-04-06T10:38:06;8.73;;;5.13;;
17528;SDS011;8882;53.192;8.184;2023-04-06T10:40:34;9.97;;;6.03;;
17528;SDS011;8882;53.192;8.184;2023-04-06T10:43:11;9.83;;;5.90;;
17528;SDS011;8882;53.192;8.184;2023-04-06T10:45:38;11.00;;;6.20;;
17528;SDS011;8882;53.192;8.184;2023-04-06T10:48:14;9.60;;;5.70;;
17528;SDS011;8882;53.192;8.184;2023-04-06T10:50:42;8.13;;;5.70;;
17528;SDS011;8882;53.192;8.184;2023-04-06T10:53:09;10.27;;;5.97;;
17528;SDS011;8882;53.192;8.184;2023-04-06T10:55:35;6.87;;;5.07;;
17528;SDS011;8882;53.192;8.184;2023-04-06T10:58:07;10.97;;;5.83;;
17528;SDS011;8882;53.192;8.184;2023-04-06T11:00:33;10.43;;;6.40;;
17528;SDS011;8882;53.192;8.184;2023-04-06T11:03:00;9.17;;;6.10;;
17528;SDS011;8882;53.192;8.184;2023-04-06T11:05:26;8.37;;;5.07;;
17528;SDS011;8882;53.192;8.184;2023-04-06T11:07:52;8.07;;;5.57;;
17528;SDS011;8882;53.192;8.184;2023-04-06T11:10:21;11.17;;;5.90;;
17528;SDS011;8882;53.192;8.184;2023-04-06T11:12:52;8.30;;;5.53;;
17528;SDS011;8882;53.192;8.184;2023-04-06T11:15:21;9.87;;;6.10;;
17528;SDS011;8882;53.192;8.184;2023-04-06T11:17:47;8.50;;;5.40;;
17528;SDS011;8882;53.192;8.184;2023-04-06T11:20:14;6.20;;;4.67;;
17528;SDS011;8882;53.192;8.184;2023-04-06T11:22:49;9.07;;;5.60;;
17528;SDS011;8882;53.192;8.184;2023-04-06T11:25:16;9.30;;;5.43;;
17528;SDS011;8882;53.192;8.184;2023-04-06T11:27:42;6.30;;;4.40;;
17528;SDS011;8882;53.192;8.184;2023-04-06T11:30:08;7.63;;;5.13;;
17528;SDS011;8882;53.192;8.184;2023-04-06T11:32:41;7.87;;;5.10;;
17528;SDS011;8882;53.192;8.184;2023-04-06T11:35:10;10.23;;;5.57;;
17528;SDS011;8882;53.192;8.184;2023-04-06T11:37:37;7.47;;;4.87;;
17528;SDS011;8882;53.192;8.184;2023-04-06T11:40:03;6.87;;;4.90;;
17528;SDS011;8882;53.192;8.184;2023-04-06T11:42:34;7.87;;;5.20;;
17528;SDS011;8882;53.192;8.184;2023-04-06T11:45:00;8.17;;;4.97;;
17528;SDS011;8882;53.192;8.184;2023-04-06T11:47:33;8.30;;;4.90;;
17528;SDS011;8882;53.192;8.184;2023-04-06T11:50:32;7.97;;;5.53;;
17528;SDS011;8882;53.192;8.184;2023-04-06T11:52:59;6.17;;;5.23;;
17528;SDS011;8882;53.192;8.184;2023-04-06T11:55:26;9.33;;;5.90;;
17528;SDS011;8882;53.192;8.184;2023-04-06T11:57:52;9.60;;;5.43;;
17528;SDS011;8882;53.192;8.184;2023-04-06T12:00:18;9.43;;;5.70;;
17528;SDS011;8882;53.192;8.184;2023-04-06T12:02:45;9.27;;;6.17;;
17528;SDS011;8882;53.192;8.184;2023-04-06T12:05:12;12.93;;;6.80;;
17528;SDS011;8882;53.192;8.184;2023-04-06T12:07:37;11.83;;;6.80;;
17528;SDS011;8882;53.192;8.184;2023-04-06T12:10:03;11.77;;;7.30;;
17528;SDS011;8882;53.192;8.184;2023-04-06T12:12:29;13.47;;;7.90;;
17528;SDS011;8882;53.192;8.184;2023-04-06T12:14:55;14.53;;;8.23;;
17528;SDS011;8882;53.192;8.184;2023-04-06T12:17:21;12.40;;;7.83;;
17528;SDS011;8882;53.192;8.184;2023-04-06T12:19:48;11.27;;;7.27;;
17528;SDS011;8882;53.192;8.184;2023-04-06T12:22:13;11.83;;;7.20;;
17528;SDS011;8882;53.192;8.184;2023-04-06T12:24:39;13.47;;;7.03;;
17528;SDS011;8882;53.192;8.184;2023-04-06T12:27:05;13.13;;;7.10;;
17528;SDS011;8882;53.192;8.184;2023-04-06T12:29:30;11.67;;;7.33;;
17528;SDS011;8882;53.192;8.184;2023-04-06T12:31:56;12.20;;;7.33;;
17528;SDS011;8882;53.192;8.184;2023-04-06T12:34:21;10.53;;;6.40;;
17528;SDS011;8882;53.192;8.184;2023-04-06T12:36:47;11.83;;;7.13;;
17528;SDS011;8882;53.192;8.184;2023-04-06T12:39:12;11.80;;;7.63;;
17528;SDS011;8882;53.192;8.184;2023-04-06T12:41:38;12.47;;;7.10;;
17528;SDS011;8882;53.192;8.184;2023-04-06T12:44:06;16.07;;;7.70;;
17528;SDS011;8882;53.192;8.184;2023-04-06T12:46:31;11.07;;;6.57;;
17528;SDS011;8882;53.192;8.184;2023-04-06T12:48:57;9.73;;;6.30;;
17528;SDS011;8882;53.192;8.184;2023-04-06T12:51:24;12.50;;;6.90;;
17528;SDS011;8882;53.192;8.184;2023-04-06T12:53:52;15.73;;;6.73;;
17528;SDS011;8882;53.192;8.184;2023-04-06T12:56:18;12.53;;;7.47;;
17528;SDS011;8882;53.192;8.184;2023-04-06T12:58:44;10.67;;;6.63;;
17528;SDS011;8882;53.192;8.184;2023-04-06T13:01:10;9.73;;;6.50;;
17528;SDS011;8882;53.192;8.184;2023-04-06T13:03:37;9.63;;;6.73;;
17528;SDS011;8882;53.192;8.184;2023-04-06T13:06:03;10.03;;;6.43;;
17528;SDS011;8882;53.192;8.184;2023-04-06T13:08:29;10.60;;;6.03;;
17528;SDS011;8882;53.192;8.184;2023-04-06T13:10:54;8.53;;;6.10;;
17528;SDS011;8882;53.192;8.184;2023-04-06T13:13:24;10.50;;;5.80;;
17528;SDS011;8882;53.192;8.184;2023-04-06T13:15:52;10.50;;;7.27;;
17528;SDS011;8882;53.192;8.184;2023-04-06T13:18:18;10.53;;;6.00;;
17528;SDS011;8882;53.192;8.184;2023-04-06T13:20:46;9.87;;;6.40;;
17528;SDS011;8882;53.192;8.184;2023-04-06T13:23:12;10.60;;;6.10;;
17528;SDS011;8882;53.192;8.184;2023-04-06T13:25:37;11.90;;;6.93;;
17528;SDS011;8882;53.192;8.184;2023-04-06T13:28:02;8.60;;;5.83;;
17528;SDS011;8882;53.192;8.184;2023-04-06T13:30:28;9.30;;;6.10;;
17528;SDS011;8882;53.192;8.184;2023-04-06T13:32:54;11.93;;;6.23;;
17528;SDS011;8882;53.192;8.184;2023-04-06T13:35:20;10.63;;;6.20;;
17528;SDS011;8882;53.192;8.184;2023-04-06T13:37:45;8.83;;;5.37;;
17528;SDS011;8882;53.192;8.184;2023-04-06T13:40:11;12.10;;;6.37;;
17528;SDS011;8882;53.192;8.184;2023-04-06T13:42:36;8.57;;;6.17;;
17528;SDS011;8882;53.192;8.184;2023-04-06T13:45:05;9.20;;;5.97;;
17528;SDS011;8882;53.192;8.184;2023-04-06T13:47:30;10.70;;;5.27;;
17528;SDS011;8882;53.192;8.184;2023-04-06T13:49:56;11.33;;;5.67;;
17528;SDS011;8882;53.192;8.184;2023-04-06T13:52:22;9.10;;;5.80;;
17528;SDS011;8882;53.192;8.184;2023-04-06T13:54:48;10.23;;;5.90;;
17528;SDS011;8882;53.192;8.184;2023-04-06T13:57:14;8.63;;;5.53;;
17528;SDS011;8882;53.192;8.184;2023-04-06T13:59:40;9.63;;;6.13;;
17528;SDS011;8882;53.192;8.184;2023-04-06T14:02:06;8.27;;;5.43;;
17528;SDS011;8882;53.192;8.184;2023-04-06T14:04:33;12.00;;;6.50;;
17528;SDS011;8882;53.192;8.184;2023-04-06T14:07:00;8.43;;;5.37;;
17528;SDS011;8882;53.192;8.184;2023-04-06T14:09:26;8.10;;;5.87;;
17528;SDS011;8882;53.192;8.184;2023-04-06T14:11:53;13.23;;;5.87;;
17528;SDS011;8882;53.192;8.184;2023-04-06T14:14:18;10.77;;;5.83;;
17528;SDS011;8882;53.192;8.184;2023-04-06T14:16:44;9.60;;;5.43;;
17528;SDS011;8882;53.192;8.184;2023-04-06T14:19:10;9.47;;;5.43;;
17528;SDS011;8882;53.192;8.184;2023-04-06T14:21:37;9.17;;;6.13;;
17528;SDS011;8882;53.192;8.184;2023-04-06T14:24:04;9.93;;;6.00;;
17528;SDS011;8882;53.192;8.184;2023-04-06T14:26:30;9.87;;;5.67;;
17528;SDS011;8882;53.192;8.184;2023-04-06T14:28:57;10.63;;;6.30;;
17528;SDS011;8882;53.192;8.184;2023-04-06T14:31:23;11.67;;;6.43;;
17528;SDS011;8882;53.192;8.184;2023-04-06T14:33:48;9.60;;;5.77;;
17528;SDS011;8882;53.192;8.184;2023-04-06T14:36:14;9.50;;;5.83;;
17528;SDS011;8882;53.192;8.184;2023-04-06T14:38:40;9.87;;;6.23;;
17528;SDS011;8882;53.192;8.184;2023-04-06T14:41:06;10.80;;;6.10;;
17528;SDS011;8882;53.192;8.184;2023-04-06T14:43:33;12.27;;;5.67;;
17528;SDS011;8882;53.192;8.184;2023-04-06T14:46:01;9.80;;;5.60;;
17528;SDS011;8882;53.192;8.184;2023-04-06T14:48:28;8.00;;;5.87;;
17528;SDS011;8882;53.192;8.184;2023-04-06T14:50:54;9.83;;;6.20;;
17528;SDS011;8882;53.192;8.184;2023-04-06T14:53:21;10.10;;;5.97;;
17528;SDS011;8882;53.192;8.184;2023-04-06T14:55:47;10.63;;;6.00;;
17528;SDS011;8882;53.192;8.184;2023-04-06T14:58:16;10.50;;;5.80;;
17528;SDS011;8882;53.192;8.184;2023-04-06T15:00:42;8.27;;;5.23;;
17528;SDS011;8882;53.192;8.184;2023-04-06T15:03:07;9.30;;;5.67;;
17528;SDS011;8882;53.192;8.184;2023-04-06T15:05:36;10.10;;;5.67;;
17528;SDS011;8882;53.192;8.184;2023-04-06T15:08:01;12.07;;;6.37;;
17528;SDS011;8882;53.192;8.184;2023-04-06T15:10:28;8.63;;;5.17;;
17528;SDS011;8882;53.192;8.184;2023-04-06T15:12:56;7.37;;;4.37;;
17528;SDS011;8882;53.192;8.184;2023-04-06T15:15:21;15.60;;;5.93;;
17528;SDS011;8882;53.192;8.184;2023-04-06T15:17:47;9.40;;;5.43;;
17528;SDS011;8882;53.192;8.184;2023-04-06T15:20:12;9.27;;;5.40;;
17528;SDS011;8882;53.192;8.184;2023-04-06T15:22:38;10.93;;;5.37;;
17528;SDS011;8882;53.192;8.184;2023-04-06T15:25:03;13.00;;;5.70;;
17528;SDS011;8882;53.192;8.184;2023-04-06T15:27:29;8.97;;;5.53;;
17528;SDS011;8882;53.192;8.184;2023-04-06T15:29:55;10.10;;;5.93;;
17528;SDS011;8882;53.192;8.184;2023-04-06T15:32:23;9.80;;;5.13;;
17528;SDS011;8882;53.192;8.184;2023-04-06T15:34:48;8.33;;;4.97;;
17528;SDS011;8882;53.192;8.184;2023-04-06T15:37:14;8.87;;;5.43;;
17528;SDS011;8882;53.192;8.184;2023-04-06T15:39:40;9.00;;;5.43;;
17528;SDS011;8882;53.192;8.184;2023-04-06T15:42:05;9.57;;;5.60;;
17528;SDS011;8882;53.192;8.184;2023-04-06T15:44:31;8.73;;;5.70;;
17528;SDS011;8882;53.192;8.184;2023-04-06T15:46:56;9.87;;;5.43;;
17528;SDS011;8882;53.192;8.184;2023-04-06T15:49:22;9.23;;;4.97;;
17528;SDS011;8882;53.192;8.184;2023-04-06T15:51:48;9.43;;;6.10;;
17528;SDS011;8882;53.192;8.184;2023-04-06T15:54:15;7.47;;;4.90;;
17528;SDS011;8882;53.192;8.184;2023-04-06T15:56:42;10.67;;;5.20;;
17528;SDS011;8882;53.192;8.184;2023-04-06T15:59:08;11.90;;;5.50;;
17528;SDS011;8882;53.192;8.184;2023-04-06T16:01:33;7.80;;;5.00;;
17528;SDS011;8882;53.192;8.184;2023-04-06T16:03:59;8.73;;;5.37;;
17528;SDS011;8882;53.192;8.184;2023-04-06T16:06:24;8.70;;;5.17;;
17528;SDS011;8882;53.192;8.184;2023-04-06T16:08:51;9.73;;;5.17;;
17528;SDS011;8882;53.192;8.184;2023-04-06T16:11:16;9.13;;;5.40;;
17528;SDS011;8882;53.192;8.184;2023-04-06T16:13:42;9.57;;;4.90;;
17528;SDS011;8882;53.192;8.184;2023-04-06T16:16:08;10.27;;;4.90;;
17528;SDS011;8882;53.192;8.184;2023-04-06T16:18:33;11.67;;;5.20;;
17528;SDS011;8882;53.192;8.184;2023-04-06T16:20:59;9.83;;;5.20;;
17528;SDS011;8882;53.192;8.184;2023-04-06T16:23:24;13.43;;;5.00;;
17528;SDS011;8882;53.192;8.184;2023-04-06T16:25:51;8.13;;;5.40;;
17528;SDS011;8882;53.192;8.184;2023-04-06T16:28:18;9.00;;;4.77;;
17528;SDS011;8882;53.192;8.184;2023-04-06T16:30:44;7.80;;;4.80;;
17528;SDS011;8882;53.192;8.184;2023-04-06T16:33:10;12.10;;;5.83;;
17528;SDS011;8882;53.192;8.184;2023-04-06T16:35:41;9.37;;;5.40;;
17528;SDS011;8882;53.192;8.184;2023-04-06T16:38:08;8.80;;;5.37;;
17528;SDS011;8882;53.192;8.184;2023-04-06T16:40:33;10.03;;;5.40;;
17528;SDS011;8882;53.192;8.184;2023-04-06T16:42:59;9.53;;;5.30;;
17528;SDS011;8882;53.192;8.184;2023-04-06T16:45:25;9.27;;;4.77;;
17528;SDS011;8882;53.192;8.184;2023-04-06T16:47:51;8.77;;;5.20;;
17528;SDS011;8882;53.192;8.184;2023-04-06T16:50:17;10.90;;;4.87;;
17528;SDS011;8882;53.192;8.184;2023-04-06T16:52:42;9.17;;;5.43;;
17528;SDS011;8882;53.192;8.184;2023-04-06T16:55:08;9.80;;;5.67;;
17528;SDS011;8882;53.192;8.184;2023-04-06T16:57:34;11.33;;;6.07;;
17528;SDS011;8882;53.192;8.184;2023-04-06T16:59:59;10.20;;;5.90;;
17528;SDS011;8882;53.192;8.184;2023-04-06T17:02:25;11.40;;;6.70;;
17528;SDS011;8882;53.192;8.184;2023-04-06T17:04:50;13.13;;;6.87;;
17528;SDS011;8882;53.192;8.184;2023-04-06T17:07:16;10.80;;;5.83;;
17528;SDS011;8882;53.192;8.184;2023-04-06T17:09:42;11.87;;;7.03;;
17528;SDS011;8882;53.192;8.184;2023-04-06T17:12:07;12.60;;;6.90;;
17528;SDS011;8882;53.192;8.184;2023-04-06T17:14:33;10.67;;;6.43;;
17528;SDS011;8882;53.192;8.184;2023-04-06T17:16:59;9.47;;;6.40;;
17528;SDS011;8882;53.192;8.184;2023-04-06T17:19:25;12.20;;;6.80;;
17528;SDS011;8882;53.192;8.184;2023-04-06T17:21:51;11.87;;;6.80;;
17528;SDS011;8882;53.192;8.184;2023-04-06T17:24:17;12.47;;;6.13;;
17528;SDS011;8882;53.192;8.184;2023-04-06T17:26:42;10.97;;;6.40;;
17528;SDS011;8882;53.192;8.184;2023-04-06T17:29:08;14.30;;;6.80;;
17528;SDS011;8882;53.192;8.184;2023-04-06T17:31:34;11.27;;;6.13;;
17528;SDS011;8882;53.192;8.184;2023-04-06T17:33:59;10.60;;;6.80;;
17528;SDS011;8882;53.192;8.184;2023-04-06T17:36:25;10.13;;;6.00;;
17528;SDS011;8882;53.192;8.184;2023-04-06T17:38:52;12.37;;;6.00;;
17528;SDS011;8882;53.192;8.184;2023-04-06T17:41:18;12.47;;;6.50;;
17528;SDS011;8882;53.192;8.184;2023-04-06T17:43:43;11.90;;;5.77;;
17528;SDS011;8882;53.192;8.184;2023-04-06T17:46:09;9.40;;;5.73;;
17528;SDS011;8882;53.192;8.184;2023-04-06T17:48:35;11.17;;;6.50;;
17528;SDS011;8882;53.192;8.184;2023-04-06T17:51:00;11.87;;;6.83;;
17528;SDS011;8882;53.192;8.184;2023-04-06T17:53:26;14.37;;;6.73;;
17528;SDS011;8882;53.192;8.184;2023-04-06T17:55:56;12.67;;;6.43;;
17528;SDS011;8882;53.192;8.184;2023-04-06T17:58:22;13.90;;;7.10;;
17528;SDS011;8882;53.192;8.184;2023-04-06T18:00:47;13.70;;;7.13;;
17528;SDS011;8882;53.192;8.184;2023-04-06T18:03:13;13.83;;;8.50;;
17528;SDS011;8882;53.192;8.184;2023-04-06T18:05:38;14.30;;;7.33;;
17528;SDS011;8882;53.192;8.184;2023-04-06T18:08:04;13.27;;;7.30;;
17528;SDS011;8882;53.192;8.184;2023-04-06T18:10:30;11.30;;;6.70;;
17528;SDS011;8882;53.192;8.184;2023-04-06T18:12:55;13.90;;;7.93;;
17528;SDS011;8882;53.192;8.184;2023-04-06T18:15:21;11.47;;;7.50;;
17528;SDS011;8882;53.192;8.184;2023-04-06T18:17:48;19.57;;;7.80;;
17528;SDS011;8882;53.192;8.184;2023-04-06T18:20:14;12.60;;;7.87;;
17528;SDS011;8882;53.192;8.184;2023-04-06T18:22:41;11.23;;;7.20;;
17528;SDS011;8882;53.192;8.184;2023-04-06T18:25:07;11.40;;;7.37;;
17528;SDS011;8882;53.192;8.184;2023-04-06T18:27:33;13.50;;;7.33;;
17528;SDS011;8882;53.192;8.184;2023-04-06T18:29:59;11.90;;;7.30;;
17528;SDS011;8882;53.192;8.184;2023-04-06T18:32:25;15.40;;;8.23;;
17528;SDS011;8882;53.192;8.184;2023-04-06T18:34:54;16.20;;;8.87;;
17528;SDS011;8882;53.192;8.184;2023-04-06T18:37:25;14.03;;;8.20;;
17528;SDS011;8882;53.192;8.184;2023-04-06T18:39:51;14.40;;;8.90;;
17528;SDS011;8882;53.192;8.184;2023-04-06T18:42:18;16.13;;;9.73;;
17528;SDS011;8882;53.192;8.184;2023-04-06T18:44:44;15.33;;;9.40;;
17528;SDS011;8882;53.192;8.184;2023-04-06T18:47:10;14.20;;;9.23;;
17528;SDS011;8882;53.192;8.184;2023-04-06T18:49:36;15.47;;;9.63;;
17528;SDS011;8882;53.192;8.184;2023-04-06T18:52:03;18.60;;;10.20;;
17528;SDS011;8882;53.192;8.184;2023-04-06T18:54:29;15.97;;;9.17;;
17528;SDS011;8882;53.192;8.184;2023-04-06T18:56:55;13.13;;;8.60;;
17528;SDS011;8882;53.192;8.184;2023-04-06T18:59:20;15.33;;;8.43;;
17528;SDS011;8882;53.192;8.184;2023-04-06T19:01:46;14.43;;;8.57;;
17528;SDS011;8882;53.192;8.184;2023-04-06T19:04:14;17.33;;;9.70;;
17528;SDS011;8882;53.192;8.184;2023-04-06T19:06:40;16.60;;;9.43;;
17528;SDS011;8882;53.192;8.184;2023-04-06T19:09:06;24.70;;;11.87;;
17528;SDS011;8882;53.192;8.184;2023-04-06T19:11:31;41.03;;;16.37;;
17528;SDS011;8882;53.192;8.184;2023-04-06T19:13:57;42.13;;;18.67;;
17528;SDS011;8882;53.192;8.184;2023-04-06T19:16:22;39.23;;;18.10;;
17528;SDS011;8882;53.192;8.184;2023-04-06T19:18:51;34.67;;;16.17;;
17528;SDS011;8882;53.192;8.184;2023-04-06T19:21:20;30.30;;;16.23;;
17528;SDS011;8882;53.192;8.184;2023-04-06T19:23:48;27.67;;;15.00;;
17528;SDS011;8882;53.192;8.184;2023-04-06T19:26:16;21.90;;;13.00;;
17528;SDS011;8882;53.192;8.184;2023-04-06T19:28:42;17.23;;;9.30;;
17528;SDS011;8882;53.192;8.184;2023-04-06T19:31:09;17.70;;;9.53;;
17528;SDS011;8882;53.192;8.184;2023-04-06T19:33:36;18.17;;;9.73;;
17528;SDS011;8882;53.192;8.184;2023-04-06T19:36:03;19.17;;;9.80;;